TimeEDT,TemperatureF,Dew PointF,Humidity,Sea Level PressureIn,VisibilityMPH,Wind Direction,Wind SpeedMPH,Gust SpeedMPH,PrecipitationIn,Events,Conditions,WindDirDegrees,DateUTC
12:53 AM,63.0,60.1,90,30.11,6.0,Calm,Calm,-,N/A,,Partly Cloudy,0,2013-09-16 04:53:00
1:53 AM,63.0,60.1,90,30.11,6.0,Calm,Calm,-,0.01,,Clear,0,2013-09-16 05:53:00
2:53 AM,62.1,60.1,93,30.10,5.0,NNW,4.6,-,N/A,,Clear,330,2013-09-16 06:53:00
3:17 AM,60.8,59.0,94,30.15,3.0,NW,4.6,-,N/A,,Scattered Clouds,310,2013-09-16 07:17:00
3:26 AM,60.8,60.8,100,30.15,3.0,WNW,4.6,-,N/A,,Mostly Cloudy,300,2013-09-16 07:26:00
3:40 AM,62.6,60.8,94,30.16,4.0,WNW,4.6,-,N/A,,Overcast,300,2013-09-16 07:40:00
3:53 AM,62.1,60.1,93,30.10,5.0,WNW,5.8,-,N/A,,Overcast,290,2013-09-16 07:53:00
4:53 AM,61.0,59.0,93,30.09,6.0,Calm,Calm,-,N/A,,Partly Cloudy,0,2013-09-16 08:53:00
5:53 AM,60.1,59.0,96,30.10,5.0,Calm,Calm,-,N/A,,Clear,0,2013-09-16 09:53:00
6:53 AM,60.1,57.9,93,30.11,6.0,WNW,4.6,-,N/A,,Clear,290,2013-09-16 10:53:00
7:20 AM,59.0,57.2,94,30.16,1.0,NW,5.8,-,N/A,,Mist,320,2013-09-16 11:20:00
7:35 AM,59.0,57.2,94,30.16,1.0,West,4.6,-,N/A,,Mist,280,2013-09-16 11:35:00
7:53 AM,60.1,57.9,93,30.12,1.0,West,3.5,-,N/A,,Clear,280,2013-09-16 11:53:00
8:00 AM,60.8,59.0,94,30.16,6.0,Calm,Calm,-,N/A,,Clear,0,2013-09-16 12:00:00
8:36 AM,60.8,59.0,94,30.16,3.0,NW,3.5,-,N/A,,Scattered Clouds,310,2013-09-16 12:36:00
8:40 AM,60.8,59.0,94,30.16,1.8,Calm,Calm,-,N/A,,Scattered Clouds,0,2013-09-16 12:40:00
8:43 AM,60.8,59.0,94,30.16,0.8,WNW,3.5,-,N/A,,Mist,300,2013-09-16 12:43:00
8:53 AM,61.0,60.1,97,30.11,0.8,West,3.5,-,N/A,,Mostly Cloudy,280,2013-09-16 12:53:00
8:58 AM,60.8,59.0,94,30.16,2.0,WNW,3.5,-,N/A,,Overcast,300,2013-09-16 12:58:00
9:09 AM,62.6,60.8,94,30.17,4.0,West,4.6,-,N/A,,Mostly Cloudy,270,2013-09-16 13:09:00
9:24 AM,62.6,60.8,94,30.17,6.0,Calm,Calm,-,N/A,,Clear,0,2013-09-16 13:24:00
9:53 AM,68.0,63.0,84,30.12,10.0,Calm,Calm,-,N/A,,Clear,0,2013-09-16 13:53:00
10:53 AM,72.0,63.0,73,30.12,10.0,Calm,Calm,-,N/A,,Clear,0,2013-09-16 14:53:00
11:53 AM,77.0,61.0,58,30.11,10.0,WSW,4.6,-,N/A,,Clear,250,2013-09-16 15:53:00
12:53 PM,81.0,57.9,45,30.10,10.0,Variable,5.8,-,N/A,,Clear,0,2013-09-16 16:53:00
1:53 PM,81.0,59.0,47,30.08,10.0,NNW,8.1,-,N/A,,Partly Cloudy,330,2013-09-16 17:53:00
2:53 PM,82.0,57.9,44,30.06,10.0,Variable,5.8,-,N/A,,Clear,0,2013-09-16 18:53:00
3:53 PM,82.9,57.9,42,30.04,10.0,North,4.6,-,N/A,,Scattered Clouds,360,2013-09-16 19:53:00
4:53 PM,80.1,60.1,50,30.04,10.0,North,4.6,-,N/A,,Partly Cloudy,360,2013-09-16 20:53:00
5:53 PM,78.1,60.1,54,30.06,10.0,North,5.8,-,N/A,,Overcast,10,2013-09-16 21:53:00
6:53 PM,75.0,59.0,57,30.07,10.0,North,6.9,-,N/A,,Mostly Cloudy,360,2013-09-16 22:53:00
7:53 PM,73.0,59.0,61,30.09,10.0,Calm,Calm,-,N/A,,Overcast,0,2013-09-16 23:53:00
8:53 PM,72.0,60.1,66,30.12,10.0,NNE,4.6,-,N/A,,Overcast,20,2013-09-17 00:53:00
9:53 PM,71.1,60.1,68,30.14,10.0,NE,3.5,-,N/A,,Overcast,40,2013-09-17 01:53:00
10:53 PM,71.1,57.9,63,30.14,10.0,ENE,9.2,-,N/A,,Overcast,60,2013-09-17 02:53:00
11:53 PM,69.1,57.9,68,30.15,10.0,NE,8.1,-,N/A,,Overcast,50,2013-09-17 03:53:00